createdAt,value
2023-05-12T00:00:08.094Z,3.33
2023-05-12T00:03:04.233Z,2.90
2023-05-12T00:05:32.057Z,3.00
2023-05-12T00:08:03.317Z,2.58
2023-05-12T00:10:31.187Z,2.55
2023-05-12T00:12:59.219Z,3.05
2023-05-12T00:15:26.920Z,2.80
2023-05-12T00:17:54.771Z,2.90
2023-05-12T00:20:22.829Z,3.10
2023-05-12T00:22:50.748Z,2.83
2023-05-12T00:25:18.478Z,2.80
2023-05-12T00:27:46.504Z,2.78
2023-05-12T00:30:15.424Z,3.40
2023-05-12T00:32:43.378Z,2.95
2023-05-12T00:35:11.173Z,3.00
2023-05-12T00:37:39.055Z,2.80
2023-05-12T00:40:07.853Z,3.03
2023-05-12T00:42:36.717Z,3.27
2023-05-12T00:45:05.065Z,2.90
2023-05-12T00:47:33.237Z,3.45
2023-05-12T00:50:01.028Z,2.95
2023-05-12T00:52:29.014Z,2.83
2023-05-12T00:54:56.894Z,2.50
2023-05-12T00:57:28.247Z,3.33
2023-05-12T00:59:56.754Z,3.40
2023-05-12T01:02:25.037Z,3.00
2023-05-12T01:04:52.972Z,2.67
2023-05-12T01:07:26.018Z,2.80
2023-05-12T01:09:57.766Z,2.80
2023-05-12T01:12:28.384Z,2.88
2023-05-12T01:14:58.935Z,3.17
2023-05-12T01:17:33.733Z,2.70
2023-05-12T01:20:04.825Z,2.70
2023-05-12T01:22:34.079Z,2.70
2023-05-12T01:25:08.947Z,2.63
2023-05-12T01:27:40.164Z,2.70
2023-05-12T01:30:11.338Z,2.60
2023-05-12T01:32:40.732Z,2.80
2023-05-12T01:35:09.231Z,2.50
2023-05-12T01:37:39.621Z,3.05
2023-05-12T01:40:08.368Z,2.92
2023-05-12T01:42:36.239Z,4.03
2023-05-12T01:45:04.106Z,3.67
2023-05-12T01:47:32.363Z,3.50
2023-05-12T01:50:07.471Z,2.75
2023-05-12T01:52:35.531Z,2.65
2023-05-12T01:55:04.058Z,2.83
2023-05-12T01:57:38.337Z,2.80
2023-05-12T02:00:06.717Z,2.45
2023-05-12T02:02:45.516Z,2.65
2023-05-12T02:05:14.136Z,2.58
2023-05-12T02:07:44.409Z,2.55
2023-05-12T02:10:13.363Z,2.80
2023-05-12T02:12:41.395Z,2.80
2023-05-12T02:15:09.649Z,3.00
2023-05-12T02:17:40.935Z,2.95
2023-05-12T02:20:09.884Z,2.50
2023-05-12T02:22:37.816Z,3.00
2023-05-12T02:25:06.164Z,2.63
2023-05-12T02:27:34.225Z,2.70
2023-05-12T02:30:02.404Z,2.53
2023-05-12T02:32:30.584Z,2.50
2023-05-12T02:34:58.332Z,2.87
2023-05-12T02:37:26.379Z,2.75
2023-05-12T02:39:54.402Z,2.78
2023-05-12T02:42:22.457Z,2.40
2023-05-12T02:44:50.052Z,2.50
2023-05-12T02:47:18.433Z,2.50
2023-05-12T02:49:46.171Z,2.40
2023-05-12T02:52:14.347Z,2.35
2023-05-12T02:54:42.014Z,2.30
2023-05-12T02:57:11.746Z,2.15
2023-05-12T02:59:39.530Z,2.30
2023-05-12T03:02:07.562Z,2.38
2023-05-12T03:04:35.631Z,2.38
2023-05-12T03:07:04.204Z,2.47
2023-05-12T03:09:32.069Z,2.47
2023-05-12T03:12:00.008Z,2.40
2023-05-12T03:14:29.012Z,2.63
2023-05-12T03:16:57.442Z,2.50
2023-05-12T03:19:25.448Z,2.47
2023-05-12T03:21:53.571Z,2.70
2023-05-12T03:24:24.147Z,2.43
2023-05-12T03:26:52.185Z,2.67
2023-05-12T03:29:19.862Z,2.20
2023-05-12T03:31:48.313Z,2.33
2023-05-12T03:34:17.758Z,2.13
2023-05-12T03:36:46.149Z,2.40
2023-05-12T03:39:14.008Z,2.45
2023-05-12T03:41:42.105Z,2.45
2023-05-12T03:44:11.470Z,2.35
2023-05-12T03:46:39.562Z,2.20
2023-05-12T03:49:07.259Z,2.67
2023-05-12T03:51:35.339Z,2.50
2023-05-12T03:54:03.014Z,2.22
2023-05-12T03:56:31.119Z,3.00
2023-05-12T03:58:58.865Z,2.70
2023-05-12T04:01:27.036Z,2.90
2023-05-12T04:03:54.877Z,2.47
2023-05-12T04:06:22.903Z,2.20
2023-05-12T04:08:50.601Z,2.45
2023-05-12T04:11:18.837Z,2.20
2023-05-12T04:13:46.758Z,2.00
2023-05-12T04:16:15.874Z,2.72
2023-05-12T04:18:43.798Z,2.60
2023-05-12T04:21:11.796Z,2.17
2023-05-12T04:23:40.834Z,2.47
2023-05-12T04:26:08.843Z,2.43
2023-05-12T04:28:37.518Z,2.28
2023-05-12T04:31:05.685Z,2.50
2023-05-12T04:33:34.756Z,2.10
2023-05-12T04:36:03.348Z,2.55
2023-05-12T04:38:32.412Z,2.10
2023-05-12T04:41:01.501Z,2.10
2023-05-12T04:46:01.760Z,2.33
2023-05-12T04:48:29.678Z,1.80
2023-05-12T04:51:01.117Z,2.00
2023-05-12T04:53:29.280Z,2.25
2023-05-12T04:55:57.482Z,1.75
2023-05-12T04:58:28.312Z,2.03
2023-05-12T05:00:57.344Z,1.95
2023-05-12T05:03:26.389Z,2.30
2023-05-12T05:05:54.403Z,2.10
2023-05-12T05:08:22.098Z,1.70
2023-05-12T05:10:50.193Z,2.10
2023-05-12T05:13:18.165Z,2.55
2023-05-12T05:15:55.857Z,2.27
2023-05-12T05:18:25.624Z,1.98
2023-05-12T05:20:58.938Z,2.17
2023-05-12T05:23:27.583Z,1.98
2023-05-12T05:25:56.496Z,2.10
2023-05-12T05:28:24.684Z,2.20
2023-05-12T05:30:53.108Z,2.10
2023-05-12T05:37:23.955Z,1.92
2023-05-12T05:39:52.036Z,1.70
2023-05-12T05:42:20.213Z,1.60
2023-05-12T05:44:48.072Z,1.70
2023-05-12T05:47:20.430Z,1.88
2023-05-12T05:49:48.365Z,1.40
2023-05-12T05:52:45.216Z,1.73
2023-05-12T05:55:13.252Z,1.37
2023-05-12T05:57:41.610Z,1.30
2023-05-12T06:00:10.306Z,1.80
2023-05-12T06:02:47.136Z,1.40
2023-05-12T06:05:19.387Z,1.40
2023-05-12T06:07:47.897Z,1.40
2023-05-12T06:10:16.607Z,1.45
2023-05-12T06:12:45.016Z,1.33
2023-05-12T06:15:12.905Z,1.60
2023-05-12T06:17:40.955Z,1.35
2023-05-12T06:20:10.189Z,1.60
2023-05-12T06:22:39.107Z,1.42
2023-05-12T06:25:07.152Z,2.10
2023-05-12T06:27:35.362Z,1.60
2023-05-12T06:30:03.146Z,1.63
2023-05-12T06:32:31.678Z,1.37
2023-05-12T06:34:59.273Z,1.67
2023-05-12T06:37:28.300Z,2.00
2023-05-12T06:39:56.443Z,1.30
2023-05-12T06:42:25.870Z,2.30
2023-05-12T06:44:57.053Z,1.50
2023-05-12T06:47:25.557Z,1.35
2023-05-12T06:49:53.220Z,1.70
2023-05-12T06:52:25.287Z,1.35
2023-05-12T06:54:53.350Z,1.50
2023-05-12T06:57:21.356Z,1.83
2023-05-12T06:59:49.090Z,1.40
2023-05-12T07:02:17.537Z,1.73
2023-05-12T07:04:45.324Z,1.48
2023-05-12T07:07:13.270Z,1.80
2023-05-12T07:09:42.800Z,1.63
2023-05-12T07:12:10.934Z,1.58
2023-05-12T07:14:38.764Z,1.95
2023-05-12T07:17:06.756Z,1.35
2023-05-12T07:19:35.951Z,1.10
2023-05-12T07:22:04.159Z,1.80
2023-05-12T07:24:33.949Z,1.60
2023-05-12T07:27:03.019Z,1.40
2023-05-12T07:29:30.709Z,1.50
2023-05-12T07:31:59.070Z,1.50
2023-05-12T07:34:26.697Z,1.37
2023-05-12T07:36:55.006Z,1.60
2023-05-12T07:39:24.072Z,2.00
2023-05-12T07:41:53.314Z,2.00
2023-05-12T07:44:21.572Z,1.70
2023-05-12T07:46:49.706Z,1.60
2023-05-12T07:49:17.485Z,1.65
2023-05-12T07:51:45.508Z,1.95
2023-05-12T07:54:16.405Z,1.50
2023-05-12T07:56:44.530Z,1.70
2023-05-12T07:59:13.630Z,1.57
2023-05-12T08:01:42.140Z,1.38
2023-05-12T08:04:10.320Z,1.77
2023-05-12T08:06:41.253Z,1.60
2023-05-12T08:09:08.911Z,1.77
2023-05-12T08:11:36.853Z,1.63
2023-05-12T08:14:04.814Z,1.50
2023-05-12T08:16:33.366Z,1.73
2023-05-12T08:19:02.348Z,1.60
2023-05-12T08:21:32.960Z,1.63
2023-05-12T08:24:01.009Z,1.33
2023-05-12T08:26:35.015Z,1.35
2023-05-12T08:29:05.112Z,1.70
2023-05-12T08:31:33.447Z,2.15
2023-05-12T08:34:09.830Z,1.52
2023-05-12T08:36:41.111Z,1.40
2023-05-12T08:39:12.022Z,1.50
2023-05-12T08:42:13.951Z,1.33
2023-05-12T08:44:41.972Z,1.55
2023-05-12T08:47:12.754Z,1.67
2023-05-12T08:49:40.896Z,0.97
2023-05-12T08:52:12.849Z,1.33
2023-05-12T08:54:52.393Z,1.23
2023-05-12T08:57:26.410Z,1.58
2023-05-12T08:59:57.302Z,1.27
2023-05-12T09:02:26.173Z,1.33
2023-05-12T09:04:55.442Z,1.70
2023-05-12T09:07:27.241Z,1.38
2023-05-12T09:09:59.195Z,1.40
2023-05-12T09:12:32.357Z,1.35
2023-05-12T09:15:09.120Z,1.80
2023-05-12T09:17:37.481Z,1.52
2023-05-12T09:20:11.284Z,1.38
2023-05-12T09:22:43.271Z,1.20
2023-05-12T09:25:22.192Z,1.42
2023-05-12T09:27:55.703Z,1.63
2023-05-12T09:30:38.642Z,1.25
2023-05-12T09:33:09.132Z,1.02
2023-05-12T09:35:41.152Z,1.17
2023-05-12T09:38:14.363Z,1.40
2023-05-12T09:40:43.674Z,0.97
2023-05-12T09:43:15.314Z,1.20
2023-05-12T09:45:44.489Z,1.30
2023-05-12T09:48:14.364Z,1.10
2023-05-12T09:50:53.000Z,1.30
2023-05-12T09:53:23.367Z,0.97
2023-05-12T09:55:51.429Z,1.10
2023-05-12T09:58:21.145Z,1.40
2023-05-12T10:01:09.065Z,1.30
2023-05-12T10:03:41.720Z,1.50
2023-05-12T10:06:14.913Z,1.13
2023-05-12T10:08:49.245Z,1.30
2023-05-12T10:11:18.841Z,1.30
2023-05-12T10:13:48.054Z,1.58
2023-05-12T10:16:16.635Z,1.58
2023-05-12T10:18:47.988Z,1.30
2023-05-12T10:21:16.884Z,1.00
2023-05-12T10:23:45.079Z,1.20
2023-05-12T10:26:16.986Z,1.23
2023-05-12T10:28:46.138Z,1.65
2023-05-12T10:31:14.887Z,2.10
2023-05-12T10:33:43.488Z,1.20
2023-05-12T10:36:19.670Z,1.40
2023-05-12T10:38:51.267Z,1.20
2023-05-12T10:41:31.363Z,1.30
2023-05-12T10:43:59.928Z,1.23
2023-05-12T10:46:28.806Z,1.23
2023-05-12T10:49:25.111Z,1.38
2023-05-12T10:52:04.430Z,1.10
2023-05-12T10:54:45.039Z,1.45
2023-05-12T10:57:22.704Z,1.37
2023-05-12T11:00:13.106Z,1.35
2023-05-12T11:02:52.511Z,1.50
2023-05-12T11:05:22.311Z,1.30
2023-05-12T11:07:50.744Z,1.33
2023-05-12T11:10:20.215Z,1.43
2023-05-12T11:12:50.200Z,1.63
2023-05-12T11:16:33.996Z,1.40
2023-05-12T11:19:06.096Z,1.60
2023-05-12T11:21:34.349Z,1.75
2023-05-12T11:24:03.251Z,1.40
2023-05-12T11:26:32.403Z,1.17
2023-05-12T11:29:00.634Z,1.70
2023-05-12T11:31:28.563Z,2.00
2023-05-12T11:36:56.070Z,1.70
2023-05-12T11:39:26.352Z,1.73
2023-05-12T11:42:05.470Z,2.17
2023-05-12T11:44:49.155Z,1.70
2023-05-12T11:47:20.796Z,2.00
2023-05-12T11:49:55.621Z,2.07
2023-05-12T11:52:25.293Z,1.70
2023-05-12T11:54:58.008Z,2.00
2023-05-12T11:57:33.853Z,2.15
2023-05-12T12:00:10.464Z,1.67
2023-05-12T12:02:40.044Z,2.23
2023-05-12T12:05:18.855Z,2.42
2023-05-12T12:07:47.549Z,2.22
2023-05-12T12:10:17.843Z,2.28
2023-05-12T12:12:46.526Z,2.38
2023-05-12T12:15:14.750Z,2.37
2023-05-12T12:17:42.504Z,2.65
2023-05-12T12:20:11.137Z,2.40
2023-05-12T12:22:38.843Z,2.33
2023-05-12T12:25:07.825Z,2.72
2023-05-12T12:27:44.071Z,2.60
2023-05-12T12:30:17.532Z,2.33
2023-05-12T12:32:46.500Z,2.53
2023-05-12T12:35:15.085Z,2.80
2023-05-12T12:37:43.188Z,3.08
2023-05-12T12:40:12.386Z,3.23
2023-05-12T12:42:41.581Z,2.78
2023-05-12T12:45:10.450Z,2.63
2023-05-12T12:47:39.410Z,2.88
2023-05-12T12:50:10.048Z,2.30
2023-05-12T12:52:38.873Z,2.57
2023-05-12T12:55:07.794Z,2.78
2023-05-12T12:57:35.806Z,2.35
2023-05-12T13:00:05.892Z,2.60
2023-05-12T13:02:35.025Z,2.95
2023-05-12T13:05:04.580Z,3.10
2023-05-12T13:07:32.691Z,2.70
2023-05-12T13:10:01.519Z,3.13
2023-05-12T13:12:30.882Z,2.70
2023-05-12T13:15:00.650Z,2.45
2023-05-12T13:17:29.454Z,2.00
2023-05-12T13:19:59.496Z,2.70
2023-05-12T13:22:29.315Z,2.60
2023-05-12T13:24:57.858Z,2.58
2023-05-12T13:27:25.645Z,2.85
2023-05-12T13:29:53.833Z,2.40
2023-05-12T13:32:21.779Z,2.55
2023-05-12T13:34:49.934Z,2.67
2023-05-12T13:37:17.761Z,2.17
2023-05-12T13:39:46.774Z,2.58
2023-05-12T13:42:14.908Z,1.90
2023-05-12T13:44:44.409Z,1.65
2023-05-12T13:47:38.354Z,2.22
2023-05-12T13:50:07.947Z,2.20
2023-05-12T13:52:38.553Z,2.10
2023-05-12T13:55:08.203Z,2.53
2023-05-12T13:57:36.966Z,2.20
2023-05-12T14:00:06.599Z,3.05
2023-05-12T14:02:49.884Z,1.90
2023-05-12T14:05:18.331Z,1.63
2023-05-12T14:07:46.358Z,1.97
2023-05-12T14:10:15.875Z,2.10
2023-05-12T14:12:48.410Z,2.25
2023-05-12T14:17:49.570Z,2.00
2023-05-12T14:20:23.674Z,2.07
2023-05-12T14:22:54.500Z,1.90
2023-05-12T14:25:23.400Z,1.88
2023-05-12T14:27:52.004Z,2.47
2023-05-12T14:30:22.113Z,1.60
2023-05-12T14:32:53.725Z,1.80
2023-05-12T14:35:22.895Z,1.67
2023-05-12T14:37:50.817Z,1.80
2023-05-12T14:40:19.040Z,1.92
2023-05-12T14:42:48.393Z,1.77
2023-05-12T14:45:16.674Z,2.30
2023-05-12T14:47:44.738Z,2.10
2023-05-12T14:50:13.973Z,1.90
2023-05-12T14:53:17.851Z,2.05
2023-05-12T14:55:49.201Z,1.85
2023-05-12T14:58:22.355Z,1.90
2023-05-12T15:00:53.830Z,1.42
2023-05-12T15:03:22.013Z,2.13
2023-05-12T15:08:21.950Z,1.83
2023-05-12T15:10:50.207Z,2.20
2023-05-12T15:13:20.579Z,2.03
2023-05-12T15:15:55.263Z,2.17
2023-05-12T15:18:25.776Z,1.80
2023-05-12T15:20:53.715Z,1.80
2023-05-12T15:23:21.750Z,1.90
2023-05-12T15:25:49.716Z,1.73
2023-05-12T15:28:17.707Z,1.98
2023-05-12T15:30:45.945Z,2.08
2023-05-12T15:33:13.747Z,1.70
2023-05-12T15:35:42.042Z,1.80
2023-05-12T15:38:10.162Z,2.10
2023-05-12T15:40:38.409Z,2.20
2023-05-12T15:43:06.142Z,1.80
2023-05-12T15:45:37.691Z,1.80
2023-05-12T15:48:08.713Z,3.30
2023-05-12T15:50:38.456Z,2.70
2023-05-12T15:53:07.359Z,2.08
2023-05-12T15:55:35.397Z,1.92
2023-05-12T15:58:04.486Z,2.22
2023-05-12T16:00:32.777Z,2.20
2023-05-12T16:03:53.086Z,1.90
2023-05-12T16:06:58.744Z,1.90
2023-05-12T16:09:26.898Z,1.65
2023-05-12T16:11:55.424Z,1.70
2023-05-12T16:14:23.386Z,1.80
2023-05-12T16:16:51.532Z,1.98
2023-05-12T16:19:19.487Z,1.83
2023-05-12T16:21:47.468Z,1.85
2023-05-12T16:25:06.015Z,1.90
2023-05-12T16:27:36.085Z,2.10
2023-05-12T16:30:04.205Z,1.90
2023-05-12T16:32:33.841Z,1.98
2023-05-12T16:35:03.330Z,2.50
2023-05-12T16:40:47.312Z,2.37
2023-05-12T16:43:18.340Z,2.38
2023-05-12T16:45:51.131Z,2.20
2023-05-12T16:48:19.472Z,2.00
2023-05-12T16:50:47.234Z,2.67
2023-05-12T16:53:15.563Z,2.93
2023-05-12T16:55:54.222Z,7.10
2023-05-12T16:58:32.979Z,2.70
2023-05-12T17:01:02.216Z,2.30
2023-05-12T17:03:30.503Z,3.00
2023-05-12T17:05:58.352Z,11.63
2023-05-12T17:08:26.534Z,3.85
2023-05-12T17:10:54.681Z,2.83
2023-05-12T17:13:22.754Z,2.60
2023-05-12T17:15:51.730Z,2.70
2023-05-12T17:18:20.068Z,2.10
2023-05-12T17:20:48.061Z,2.20
2023-05-12T17:23:16.095Z,2.30
2023-05-12T17:25:43.974Z,3.15
2023-05-12T17:28:11.976Z,2.30
2023-05-12T17:30:39.947Z,1.93
2023-05-12T17:33:08.839Z,2.67
2023-05-12T17:35:36.864Z,2.83
2023-05-12T17:38:05.521Z,2.55
2023-05-12T17:40:33.416Z,2.63
2023-05-12T17:43:01.522Z,2.40
2023-05-12T17:45:29.482Z,3.10
2023-05-12T17:48:02.092Z,3.08
2023-05-12T17:50:29.861Z,3.35
2023-05-12T17:52:57.803Z,3.60
2023-05-12T17:55:25.572Z,2.80
2023-05-12T17:57:53.633Z,3.05
2023-05-12T18:00:22.193Z,3.17
2023-05-12T18:02:50.443Z,3.25
2023-05-12T18:05:18.545Z,3.92
2023-05-12T18:07:46.534Z,2.70
2023-05-12T18:10:14.608Z,2.58
2023-05-12T18:12:42.815Z,3.17
2023-05-12T18:15:11.590Z,2.30
2023-05-12T18:17:39.912Z,2.40
2023-05-12T18:20:09.141Z,2.37
2023-05-12T18:22:37.357Z,2.35
2023-05-12T18:25:05.930Z,2.40
2023-05-12T18:27:46.079Z,2.60
2023-05-12T18:30:56.171Z,3.10
2023-05-12T18:33:29.545Z,15.03
2023-05-12T18:35:57.514Z,7.20
2023-05-12T18:38:25.458Z,7.40
2023-05-12T18:40:54.131Z,8.55
2023-05-12T18:43:29.944Z,21.38
2023-05-12T18:46:14.659Z,23.73
2023-05-12T18:48:54.680Z,25.42
2023-05-12T18:51:30.254Z,9.90
2023-05-12T18:54:04.468Z,15.43
2023-05-12T18:56:32.353Z,7.75
2023-05-12T18:59:00.541Z,6.63
2023-05-12T19:01:33.498Z,8.00
2023-05-12T19:04:05.424Z,8.38
2023-05-12T19:06:42.371Z,7.43
2023-05-12T19:09:11.588Z,11.32
2023-05-12T19:11:39.995Z,29.03
2023-05-12T19:17:25.640Z,24.45
2023-05-12T19:19:57.856Z,6.22
2023-05-12T19:22:27.043Z,4.53
2023-05-12T19:25:01.303Z,4.80
2023-05-12T19:27:38.146Z,3.90
2023-05-12T19:30:17.403Z,4.03
2023-05-12T19:33:03.849Z,3.28
2023-05-12T19:35:54.316Z,3.90
2023-05-12T19:38:34.196Z,4.00
2023-05-12T19:41:13.054Z,3.92
2023-05-12T19:43:45.715Z,4.07
2023-05-12T19:46:15.498Z,3.42
2023-05-12T19:49:18.314Z,4.95
2023-05-12T19:51:57.199Z,3.60
2023-05-12T19:54:41.707Z,3.97
2023-05-12T19:57:16.444Z,3.90
2023-05-12T20:00:19.512Z,4.25
2023-05-12T20:03:42.041Z,3.70
2023-05-12T20:06:12.717Z,3.70
2023-05-12T20:08:40.954Z,3.63
2023-05-12T20:11:09.105Z,3.47
2023-05-12T20:13:39.821Z,3.40
2023-05-12T20:16:09.119Z,3.45
2023-05-12T20:18:40.898Z,3.63
2023-05-12T20:21:10.545Z,3.80
2023-05-12T20:23:41.647Z,4.13
2023-05-12T20:26:12.591Z,4.80
2023-05-12T20:28:47.847Z,4.80
2023-05-12T20:31:16.860Z,3.90
2023-05-12T20:33:47.997Z,4.38
2023-05-12T20:36:22.437Z,3.95
2023-05-12T20:38:59.766Z,3.70
2023-05-12T20:41:28.333Z,3.78
2023-05-12T20:43:56.697Z,4.47
2023-05-12T20:46:25.244Z,4.70
2023-05-12T20:48:53.154Z,4.57
2023-05-12T20:51:21.212Z,4.65
2023-05-12T20:53:49.473Z,5.32
2023-05-12T20:56:17.273Z,4.73
2023-05-12T20:58:48.300Z,4.68
2023-05-12T21:01:17.862Z,4.60
2023-05-12T21:03:46.562Z,5.82
2023-05-12T21:06:14.952Z,5.00
2023-05-12T21:08:43.048Z,4.80
2023-05-12T21:11:16.406Z,5.03
2023-05-12T21:13:46.398Z,5.28
2023-05-12T21:16:15.055Z,5.50
2023-05-12T21:18:43.028Z,6.85
2023-05-12T21:21:10.841Z,6.60
2023-05-12T21:23:38.743Z,5.90
2023-05-12T21:26:06.745Z,4.55
2023-05-12T21:28:34.620Z,5.22
2023-05-12T21:31:06.041Z,5.35
2023-05-12T21:33:34.140Z,4.97
2023-05-12T21:36:01.749Z,5.00
2023-05-12T21:38:32.519Z,4.68
2023-05-12T21:41:00.830Z,5.18
2023-05-12T21:43:28.764Z,4.68
2023-05-12T21:45:56.423Z,4.80
2023-05-12T21:48:25.193Z,5.50
2023-05-12T21:51:00.563Z,4.95
2023-05-12T21:53:29.312Z,6.53
2023-05-12T21:55:57.001Z,4.78
2023-05-12T21:58:25.338Z,4.53
2023-05-12T22:00:52.912Z,4.72
2023-05-12T22:03:22.217Z,4.72
2023-05-12T22:05:50.331Z,4.53
2023-05-12T22:08:20.100Z,4.35
2023-05-12T22:10:48.392Z,4.67
2023-05-12T22:13:16.367Z,3.95
2023-05-12T22:15:44.211Z,4.47
2023-05-12T22:18:12.125Z,4.10
2023-05-12T22:20:39.869Z,4.07
2023-05-12T22:23:08.222Z,7.23
2023-05-12T22:25:35.942Z,5.97
2023-05-12T22:28:05.901Z,4.65
2023-05-12T22:30:34.770Z,6.55
2023-05-12T22:33:02.653Z,35.65
2023-05-12T22:35:30.284Z,14.13
2023-05-12T22:37:58.211Z,9.80
2023-05-12T22:40:27.440Z,6.13
2023-05-12T22:42:55.330Z,5.43
2023-05-12T22:45:22.996Z,5.70
2023-05-12T22:47:50.755Z,6.00
2023-05-12T22:50:19.376Z,5.82
2023-05-12T22:52:47.383Z,9.50
2023-05-12T22:55:14.976Z,5.95
2023-05-12T22:57:44.070Z,4.90
2023-05-12T23:00:13.369Z,3.90
2023-05-12T23:02:41.480Z,4.15
2023-05-12T23:05:09.998Z,4.10
2023-05-12T23:07:41.672Z,5.07
2023-05-12T23:10:09.686Z,5.90
2023-05-12T23:12:37.667Z,3.97
2023-05-12T23:15:05.835Z,3.90
2023-05-12T23:17:34.026Z,5.93
2023-05-12T23:20:01.739Z,4.53
2023-05-12T23:22:29.804Z,5.10
2023-05-12T23:24:58.970Z,5.10
2023-05-12T23:27:27.124Z,4.70
2023-05-12T23:29:54.671Z,4.18
2023-05-12T23:32:22.799Z,4.38
2023-05-12T23:34:50.797Z,4.57
2023-05-12T23:37:19.891Z,4.60
2023-05-12T23:39:47.372Z,4.47
2023-05-12T23:42:15.402Z,3.90
2023-05-12T23:44:43.703Z,4.05
2023-05-12T23:47:11.537Z,4.00
2023-05-12T23:49:39.449Z,4.20
2023-05-12T23:52:07.456Z,4.15
2023-05-12T23:54:35.043Z,4.35
2023-05-12T23:57:03.584Z,4.30
2023-05-12T23:59:31.285Z,3.83
